Time;durP1;ratioP1;P1;durP2;ratioP2;P2;SDS_P1;SDS_P2;PMS_P1;PMS_P2;Temp;Humidity;BMP_temperature;BMP_pressure;BME280_temperature;BME280_humidity;BME280_pressure;Samples;Min_cycle;Max_cycle;Signal;HPM_P1;HPM_P2
2023/05/28 00:01:07;;;;;;;23.20;13.32;;;;;;;18.59;89.07;100391.09;5075167;28;20051;-86
2023/05/28 00:03:35;;;;;;;28.75;12.68;;;;;;;18.57;88.95;100393.13;5074581;28;20048;-88
2023/05/28 00:06:01;;;;;;;30.55;13.88;;;;;;;18.64;89.09;100408.59;5051700;28;20077;-88
2023/05/28 00:08:26;;;;;;;28.52;13.73;;;;;;;18.66;88.97;100414.69;5036709;28;20029;-88
2023/05/28 00:10:59;;;;;;;23.55;12.93;;;;;;;18.63;88.57;100408.75;5032101;28;20116;-89
2023/05/28 00:13:28;;;;;;;22.52;12.80;;;;;;;18.59;88.48;100402.81;5013125;28;20453;-89
2023/05/28 00:15:54;;;;;;;25.50;12.73;;;;;;;18.38;88.86;100376.22;5031070;28;20452;-90
2023/05/28 00:18:19;;;;;;;19.42;13.25;;;;;;;18.44;88.94;100410.03;5033089;28;20056;-89
2023/05/28 00:20:45;;;;;;;29.67;13.38;;;;;;;18.32;89.16;100398.72;5052229;28;20061;-88
2023/05/28 00:23:12;;;;;;;24.52;13.40;;;;;;;18.35;89.70;100411.97;5057168;28;20025;-90
2023/05/28 00:25:38;;;;;;;24.55;14.38;;;;;;;18.19;90.16;100387.59;5044417;28;20029;-89
2023/05/28 00:28:03;;;;;;;29.77;12.85;;;;;;;18.28;90.16;100405.59;5049435;28;20033;-88
2023/05/28 00:30:29;;;;;;;30.95;13.23;;;;;;;18.17;90.38;100380.63;5066879;28;20049;-91
2023/05/28 00:32:55;;;;;;;24.85;13.18;;;;;;;18.25;90.15;100400.50;5037379;28;20117;-89
2023/05/28 00:35:20;;;;;;;24.17;12.70;;;;;;;18.11;89.99;100365.84;5032289;28;20043;-90
2023/05/28 00:37:46;;;;;;;38.28;13.73;;;;;;;18.24;90.46;100398.78;5013185;28;20041;-88
2023/05/28 00:40:11;;;;;;;23.80;13.07;;;;;;;18.11;90.62;100382.19;5031540;28;20029;-88
2023/05/28 00:42:37;;;;;;;26.85;12.63;;;;;;;18.08;90.59;100388.00;5034407;28;20029;-89
2023/05/28 00:45:02;;;;;;;25.02;13.45;;;;;;;18.09;90.87;100394.28;5030267;28;20028;-88
2023/05/28 00:47:28;;;;;;;25.25;12.52;;;;;;;18.10;90.99;100396.00;5036157;28;20081;-88
2023/05/28 00:49:55;;;;;;;42.50;13.77;;;;;;;18.13;91.37;100407.38;5052899;28;20407;-90
2023/05/28 00:52:21;;;;;;;30.00;13.95;;;;;;;18.15;91.55;100399.88;5018259;28;20085;-89
2023/05/28 00:54:48;;;;;;;25.42;12.40;;;;;;;18.08;91.19;100385.25;5019669;28;20056;-88
2023/05/28 00:57:14;;;;;;;22.05;13.00;;;;;;;18.12;91.20;100383.03;5078272;28;20082;-87
2023/05/28 00:59:41;;;;;;;37.45;12.52;;;;;;;17.97;91.14;100366.63;5061192;28;20097;-88
2023/05/28 01:02:06;;;;;;;18.63;13.32;;;;;;;18.00;91.10;100374.44;5061752;28;20085;-87
2023/05/28 01:04:32;;;;;;;21.92;12.77;;;;;;;18.07;91.34;100380.03;5059508;28;20025;-90
2023/05/28 01:06:59;;;;;;;40.88;13.02;;;;;;;18.22;91.54;100389.97;5057568;28;20036;-92
2023/05/28 01:09:25;;;;;;;27.00;12.82;;;;;;;18.26;91.17;100366.78;5061136;28;20025;-89
2023/05/28 01:11:54;;;;;;;34.60;12.65;;;;;;;18.39;89.81;100386.09;5052881;28;20102;-88
2023/05/28 01:14:21;;;;;;;55.03;13.48;;;;;;;18.22;89.78;100346.41;5043406;28;20028;-91
2023/05/28 01:16:48;;;;;;;21.58;12.40;;;;;;;18.33;89.44;100359.59;5051706;28;20045;-91
2023/05/28 01:19:21;;;;;;;27.48;13.20;;;;;;;18.35;89.25;100376.56;5031693;28;20038;-89
2023/05/28 01:21:55;;;;;;;22.15;11.85;;;;;;;18.35;89.04;100362.97;5058570;28;20095;-89
2023/05/28 01:24:41;;;;;;;31.75;12.13;;;;;;;18.36;89.23;100363.81;5017814;28;20046;-88
2023/05/28 01:27:07;;;;;;;29.02;11.55;;;;;;;18.46;89.33;100381.63;5000515;28;20042;-89
2023/05/28 01:29:32;;;;;;;26.45;12.05;;;;;;;18.57;89.00;100376.78;5025075;28;20049;-90
2023/05/28 01:31:58;;;;;;;29.88;12.93;;;;;;;18.61;88.45;100361.78;5033944;28;20038;-90
2023/05/28 01:34:24;;;;;;;27.15;12.38;;;;;;;18.62;87.98;100358.03;5014764;28;20081;-89
2023/05/28 01:36:57;;;;;;;18.42;11.57;;;;;;;18.55;88.16;100347.03;5013468;28;20073;-89
2023/05/28 01:39:30;;;;;;;36.22;13.30;;;;;;;18.69;88.17;100364.44;5012128;28;20076;-88
2023/05/28 01:41:58;;;;;;;31.40;12.18;;;;;;;18.79;88.11;100375.94;5012122;28;20034;-90
2023/05/28 01:44:24;;;;;;;31.23;11.35;;;;;;;18.73;87.98;100358.44;5013004;28;20038;-88
2023/05/28 01:46:52;;;;;;;22.08;12.45;;;;;;;18.70;87.76;100349.78;5016621;28;20030;-89
2023/05/28 01:49:19;;;;;;;23.65;12.60;;;;;;;18.80;87.97;100361.28;5018879;28;20054;-88
2023/05/28 01:51:45;;;;;;;26.92;11.93;;;;;;;18.89;87.53;100369.22;4997170;28;20395;-89
2023/05/28 01:54:10;;;;;;;28.90;11.73;;;;;;;18.86;87.24;100366.00;5016600;28;20034;-88
2023/05/28 01:56:36;;;;;;;20.80;12.07;;;;;;;18.93;87.20;100372.38;4996929;28;20053;-88
2023/05/28 01:59:02;;;;;;;31.00;13.40;;;;;;;18.94;87.42;100369.50;4958795;28;20053;-90
2023/05/28 02:01:29;;;;;;;27.38;12.90;;;;;;;19.05;87.56;100389.97;4972892;28;20039;-89
2023/05/28 02:03:58;;;;;;;20.77;12.52;;;;;;;19.11;87.73;100375.63;4972196;28;20031;-90
2023/05/28 02:06:25;;;;;;;99.75;19.55;;;;;;;19.11;87.48;100372.06;4972160;28;20030;-88
2023/05/28 02:08:52;;;;;;;36.42;13.95;;;;;;;19.25;87.10;100382.13;4975644;28;20418;-90
2023/05/28 02:11:18;;;;;;;27.83;13.98;;;;;;;19.23;87.00;100385.06;4974478;28;20047;-89
2023/05/28 02:13:43;;;;;;;33.63;13.43;;;;;;;19.19;86.90;100371.97;4972305;28;20034;-90
2023/05/28 02:16:10;;;;;;;35.28;13.68;;;;;;;19.19;87.12;100386.44;4971794;28;20598;-90
2023/05/28 02:18:36;;;;;;;28.25;13.68;;;;;;;19.29;86.42;100395.22;4971297;28;20026;-90
2023/05/28 02:21:03;;;;;;;28.77;13.82;;;;;;;19.23;86.52;100376.88;4974425;28;20134;-91
2023/05/28 02:23:29;;;;;;;24.83;13.23;;;;;;;19.15;86.65;100370.63;4989379;28;20035;-91
2023/05/28 02:25:54;;;;;;;22.38;14.07;;;;;;;19.19;86.89;100386.44;4979066;28;20061;-88
2023/05/28 02:28:20;;;;;;;32.65;14.55;;;;;;;19.21;86.92;100378.91;5051664;28;20052;-90
2023/05/28 02:30:46;;;;;;;23.60;14.27;;;;;;;19.16;87.22;100383.25;5058961;28;20036;-89
2023/05/28 02:33:12;;;;;;;22.98;14.15;;;;;;;19.23;87.77;100401.41;5050630;28;20134;-90
2023/05/28 02:35:37;;;;;;;31.13;13.93;;;;;;;19.18;87.61;100383.91;5034981;28;20053;-88
2023/05/28 02:38:03;;;;;;;33.90;15.32;;;;;;;19.12;87.91;100377.31;5032671;28;20029;-90
2023/05/28 02:40:28;;;;;;;25.60;16.25;;;;;;;19.25;87.85;100399.34;5032370;28;20033;-89
2023/05/28 02:42:54;;;;;;;21.90;15.48;;;;;;;19.06;87.83;100372.59;5015781;28;20087;-89
2023/05/28 02:45:19;;;;;;;35.60;17.15;;;;;;;19.02;88.53;100382.19;5035777;28;20025;-89
2023/05/28 02:47:45;;;;;;;27.20;14.70;;;;;;;19.06;88.67;100393.56;5035514;28;20492;-91
2023/05/28 02:50:10;;;;;;;32.25;17.00;;;;;;;18.99;89.04;100402.47;5037564;28;20052;-89
2023/05/28 02:52:36;;;;;;;32.63;16.23;;;;;;;18.95;89.24;100397.59;5057115;28;20033;-88
2023/05/28 02:55:02;;;;;;;25.02;15.80;;;;;;;18.97;89.40;100406.44;5028851;28;20036;-88
2023/05/28 02:57:27;;;;;;;28.00;16.63;;;;;;;18.85;89.79;100399.72;5036746;28;20021;-88
2023/05/28 02:59:53;;;;;;;29.60;15.07;;;;;;;18.88;90.29;100396.63;5015440;28;20034;-91
2023/05/28 03:02:18;;;;;;;34.55;16.15;;;;;;;18.85;90.10;100388.81;5032031;28;20025;-91
2023/05/28 03:04:44;;;;;;;24.73;16.17;;;;;;;18.96;90.44;100410.16;5031709;28;20029;-87
2023/05/28 03:07:09;;;;;;;32.33;17.90;;;;;;;18.85;90.36;100391.53;5013391;28;20124;-88
2023/05/28 03:09:37;;;;;;;32.67;15.35;;;;;;;18.92;90.03;100403.41;5014532;28;20038;-89
2023/05/28 03:12:02;;;;;;;45.20;16.88;;;;;;;18.89;89.92;100409.22;5014083;28;20404;-89
2023/05/28 03:14:28;;;;;;;29.02;16.45;;;;;;;18.78;89.59;100390.56;5013400;28;20029;-89
2023/05/28 03:16:53;;;;;;;42.03;16.70;;;;;;;18.81;89.77;100412.88;5032863;28;20417;-90
2023/05/28 03:19:20;;;;;;;24.40;15.55;;;;;;;18.78;89.58;100426.84;5031676;28;20033;-90
2023/05/28 03:21:45;;;;;;;36.53;17.92;;;;;;;18.75;89.98;100420.91;5013336;28;20061;-89
2023/05/28 03:24:11;;;;;;;35.90;18.40;;;;;;;18.74;90.26;100413.78;5013551;28;20033;-89
2023/05/28 03:26:37;;;;;;;22.40;15.80;;;;;;;18.73;89.78;100412.09;5030827;28;20094;-89
2023/05/28 03:29:02;;;;;;;35.10;16.60;;;;;;;18.62;89.78;100385.28;5030690;28;20370;-88
2023/05/28 03:31:29;;;;;;;43.20;16.42;;;;;;;18.85;90.29;100407.91;5013594;28;20033;-90
2023/05/28 03:33:55;;;;;;;32.08;17.73;;;;;;;18.84;89.98;100393.41;5030619;28;20021;-88
2023/05/28 03:36:21;;;;;;;48.45;16.67;;;;;;;18.97;89.38;100392.78;5031268;28;20095;-88
2023/05/28 03:38:47;;;;;;;42.70;16.35;;;;;;;19.03;88.27;100392.06;5013380;28;20037;-90
2023/05/28 03:41:12;;;;;;;27.80;17.38;;;;;;;19.02;87.28;100393.94;5017202;28;20064;-89
2023/05/28 03:43:38;;;;;;;74.82;20.52;;;;;;;19.12;86.75;100390.94;5017150;28;20040;-89
2023/05/28 03:46:03;;;;;;;54.33;20.80;;;;;;;19.01;85.90;100385.97;5025178;28;20076;-89
2023/05/28 03:48:29;;;;;;;41.95;16.52;;;;;;;18.97;86.31;100393.66;5038738;28;20014;-90
2023/05/28 03:50:55;;;;;;;20.27;13.98;;;;;;;18.85;86.00;100381.50;5047234;28;20048;-89
2023/05/28 03:53:21;;;;;;;82.13;19.67;;;;;;;18.93;86.69;100403.22;5009118;28;20145;-90
2023/05/28 03:55:46;;;;;;;33.05;13.98;;;;;;;18.91;86.55;100385.34;5010123;28;20053;-89
2023/05/28 03:58:14;;;;;;;83.07;20.55;;;;;;;19.01;86.53;100396.84;5024935;28;20445;-91
2023/05/28 04:00:40;;;;;;;30.35;13.98;;;;;;;19.14;86.04;100407.13;5028906;28;20033;-90
2023/05/28 04:03:05;;;;;;;28.80;13.50;;;;;;;19.03;85.91;100387.47;5011934;28;20511;-89
2023/05/28 04:05:33;;;;;;;27.90;12.88;;;;;;;19.10;84.78;100406.66;5028744;28;20034;-89
2023/05/28 04:07:59;;;;;;;21.02;12.60;;;;;;;19.14;84.58;100398.94;5011979;28;20034;-88
2023/05/28 04:10:24;;;;;;;19.88;11.98;;;;;;;19.22;83.42;100409.78;5029443;28;20039;-88
2023/05/28 04:12:50;;;;;;;20.52;12.13;;;;;;;19.16;82.54;100405.91;5012867;28;20057;-91
2023/05/28 04:15:15;;;;;;;42.72;12.73;;;;;;;19.31;81.54;100422.28;5010449;28;20041;-90
2023/05/28 04:17:40;;;;;;;51.97;12.43;;;;;;;19.16;82.07;100400.47;5029065;28;20033;-90
2023/05/28 04:20:06;;;;;;;49.45;16.50;;;;;;;19.31;81.95;100417.69;5028886;28;20064;-90
2023/05/28 04:22:33;;;;;;;34.00;15.45;;;;;;;19.42;81.10;100432.75;5029260;28;20169;-88
2023/05/28 04:24:59;;;;;;;21.08;10.30;;;;;;;19.40;81.11;100426.66;5045569;28;20501;-89
2023/05/28 04:27:24;;;;;;;24.50;11.70;;;;;;;19.33;81.34;100412.88;5032385;28;20044;-89
2023/05/28 04:29:52;;;;;;;20.65;11.52;;;;;;;19.43;81.13;100429.88;5032957;28;20043;-89
2023/05/28 04:32:17;;;;;;;23.25;11.27;;;;;;;19.51;81.48;100437.94;5035917;28;20033;-90
2023/05/28 04:34:43;;;;;;;67.57;14.30;;;;;;;19.57;81.51;100443.72;5037557;28;20419;-91
2023/05/28 04:37:08;;;;;;;31.35;11.73;;;;;;;19.59;81.32;100433.44;5040083;28;20044;-90
2023/05/28 04:39:35;;;;;;;25.10;11.70;;;;;;;19.72;81.64;100439.09;5058045;28;20539;-89
2023/05/28 04:42:03;;;;;;;19.80;9.90;;;;;;;19.73;80.32;100436.16;5041943;28;20032;-89
2023/05/28 04:44:30;;;;;;;60.70;13.35;;;;;;;19.72;80.49;100441.84;5078800;28;20052;-90
2023/05/28 04:46:58;;;;;;;29.40;11.70;;;;;;;19.61;80.75;100436.81;5078629;28;20033;-89
2023/05/28 04:49:24;;;;;;;21.58;10.82;;;;;;;19.68;80.35;100452.28;5037932;28;20049;-87
2023/05/28 04:51:50;;;;;;;30.60;11.30;;;;;;;19.72;80.28;100455.47;5039639;28;20029;-91
2023/05/28 04:54:15;;;;;;;32.13;12.55;;;;;;;19.69;80.73;100444.94;5039136;28;20108;-84
2023/05/28 04:56:41;;;;;;;50.63;12.77;;;;;;;19.78;80.38;100449.25;5066139;28;20034;-88
2023/05/28 04:59:09;;;;;;;30.92;14.15;;;;;;;19.94;79.87;100457.22;5021525;28;20033;-86
2023/05/28 05:01:35;;;;;;;27.00;10.98;;;;;;;20.00;79.24;100459.22;5034791;28;20136;-88
2023/05/28 05:04:01;;;;;;;25.20;11.40;;;;;;;19.85;78.39;100445.56;5035032;28;20049;-86
2023/05/28 05:06:27;;;;;;;19.25;9.75;;;;;;;19.95;77.97;100445.28;5037776;28;20032;-90
2023/05/28 05:08:53;;;;;;;65.20;14.40;;;;;;;20.03;77.70;100439.72;5035978;28;20112;-90
2023/05/28 05:11:19;;;;;;;28.77;11.35;;;;;;;20.06;76.80;100426.53;5034765;28;20033;-88
2023/05/28 05:13:45;;;;;;;31.63;10.32;;;;;;;20.08;76.49;100426.34;5035212;28;20064;-87
2023/05/28 05:16:10;;;;;;;23.60;10.75;;;;;;;20.09;76.45;100434.34;5038153;28;20123;-87
2023/05/28 05:18:36;;;;;;;16.77;10.38;;;;;;;20.21;75.61;100442.91;5046314;28;20029;-85
2023/05/28 05:21:02;;;;;;;28.48;10.00;;;;;;;20.20;75.45;100441.22;5048654;28;20073;-85
2023/05/28 05:23:27;;;;;;;47.80;11.13;;;;;;;20.18;74.83;100429.66;5036614;28;20095;-88
2023/05/28 05:25:52;;;;;;;37.28;10.20;;;;;;;20.21;74.65;100434.72;5018628;28;20037;-82
2023/05/28 05:28:18;;;;;;;15.30;8.55;;;;;;;20.21;74.27;100440.19;5047606;28;20106;-80
2023/05/28 05:30:44;;;;;;;32.53;9.50;;;;;;;20.24;74.44;100447.16;5053287;28;20121;-79
2023/05/28 05:33:09;;;;;;;16.55;8.73;;;;;;;20.15;74.31;100440.09;5055454;28;20483;-82
2023/05/28 05:35:35;;;;;;;18.65;9.07;;;;;;;20.15;75.06;100451.84;5033494;28;20095;-81
2023/05/28 05:38:00;;;;;;;44.67;10.27;;;;;;;20.09;75.91;100448.00;5033702;28;20025;-79
2023/05/28 05:40:27;;;;;;;40.72;11.38;;;;;;;20.08;76.27;100450.94;5044714;28;20032;-85
2023/05/28 05:42:52;;;;;;;26.27;9.82;;;;;;;20.02;76.84;100447.09;5045374;28;20041;-83
2023/05/28 05:45:17;;;;;;;24.00;9.65;;;;;;;20.03;77.50;100442.44;5033839;28;20022;-84
2023/05/28 05:47:43;;;;;;;27.17;11.43;;;;;;;19.93;78.27;100428.25;5052951;28;20047;-79
2023/05/28 05:50:11;;;;;;;22.40;10.23;;;;;;;20.02;78.27;100449.81;5063859;28;20033;-82
2023/05/28 05:52:36;;;;;;;16.90;9.40;;;;;;;19.99;79.16;100465.72;5071290;28;20093;-82
2023/05/28 05:55:01;;;;;;;27.25;9.05;;;;;;;19.89;79.73;100456.97;5068541;28;20052;-80
2023/05/28 05:57:27;;;;;;;23.60;10.32;;;;;;;19.84;80.54;100454.81;5051102;28;20044;-83
2023/05/28 05:59:54;;;;;;;51.45;16.10;;;;;;;19.93;81.27;100469.22;5050228;28;20075;-82
2023/05/28 06:02:19;;;;;;;42.03;10.63;;;;;;;19.86;81.96;100451.88;5053743;28;20052;-81
2023/05/28 06:04:45;;;;;;;33.72;12.90;;;;;;;19.90;81.80;100466.84;5050683;28;20021;-85
2023/05/28 06:07:10;;;;;;;26.90;13.82;;;;;;;19.89;82.24;100485.13;5031048;28;20501;-83
2023/05/28 06:09:36;;;;;;;26.27;12.23;;;;;;;19.84;82.55;100462.16;5037936;28;20472;-89
2023/05/28 06:12:01;;;;;;;54.90;14.93;;;;;;;19.89;82.84;100465.16;5033937;28;20026;-86
2023/05/28 06:14:27;;;;;;;23.15;10.27;;;;;;;19.96;83.36;100474.28;5036462;28;20022;-84
2023/05/28 06:16:53;;;;;;;30.92;12.43;;;;;;;19.89;83.05;100462.44;5033268;28;20205;-90
2023/05/28 06:19:18;;;;;;;26.83;10.57;;;;;;;19.99;83.21;100482.09;5032962;28;20116;-88
2023/05/28 06:21:44;;;;;;;37.88;14.55;;;;;;;19.93;83.58;100474.66;5032676;28;20199;-88
2023/05/28 06:24:10;;;;;;;29.52;11.20;;;;;;;19.93;84.18;100469.22;5035526;28;20048;-88
2023/05/28 06:26:36;;;;;;;18.08;10.80;;;;;;;19.94;85.08;100487.25;5041601;28;20030;-90
2023/05/28 06:29:01;;;;;;;22.33;11.13;;;;;;;19.93;85.80;100496.50;5033512;28;20489;-85
2023/05/28 06:31:27;;;;;;;22.58;14.20;;;;;;;19.93;86.23;100480.97;5032667;28;20115;-83
2023/05/28 06:33:52;;;;;;;25.30;12.65;;;;;;;19.86;86.40;100473.72;5033238;28;20025;-84
2023/05/28 06:36:18;;;;;;;26.63;12.68;;;;;;;19.89;86.74;100493.31;5036130;28;20025;-80
2023/05/28 06:38:43;;;;;;;24.33;12.70;;;;;;;19.92;87.11;100483.88;5049774;28;20469;-82
2023/05/28 06:41:08;;;;;;;20.23;10.32;;;;;;;19.82;87.63;100483.31;5037344;28;20028;-81
2023/05/28 06:43:34;;;;;;;24.60;12.27;;;;;;;19.83;87.84;100476.81;5036335;28;20033;-83
2023/05/28 06:46:00;;;;;;;29.02;13.93;;;;;;;19.81;87.98;100476.19;5031001;28;20029;-82
2023/05/28 06:48:25;;;;;;;28.58;13.48;;;;;;;19.81;87.58;100487.09;5031090;28;20032;-81
2023/05/28 06:50:51;;;;;;;24.75;13.32;;;;;;;19.84;88.43;100489.44;5031926;28;20091;-82
2023/05/28 06:53:16;;;;;;;30.33;13.63;;;;;;;19.87;88.73;100486.34;5029852;28;20112;-87
2023/05/28 06:55:42;;;;;;;29.75;12.52;;;;;;;19.74;88.87;100491.59;5031012;28;20469;-83
2023/05/28 06:58:07;;;;;;;24.67;11.93;;;;;;;19.67;90.37;100487.91;5037973;28;20047;-85
2023/05/28 07:00:34;;;;;;;29.98;13.65;;;;;;;19.57;91.59;100479.19;5038167;28;20025;-85
2023/05/28 07:02:59;;;;;;;23.98;12.20;;;;;;;19.57;92.62;100484.63;5031126;28;20116;-84
2023/05/28 07:05:25;;;;;;;26.45;12.88;;;;;;;19.55;93.12;100485.66;5039363;28;20041;-82
2023/05/28 07:07:50;;;;;;;22.92;11.63;;;;;;;19.61;93.00;100496.84;5039146;28;20033;-81
2023/05/28 07:10:16;;;;;;;22.52;12.77;;;;;;;19.51;92.60;100491.66;5033881;28;20156;-81
2023/05/28 07:12:41;;;;;;;20.33;11.73;;;;;;;19.57;92.15;100490.91;5029897;28;20030;-83
2023/05/28 07:15:07;;;;;;;31.45;13.70;;;;;;;19.65;92.10;100492.72;5029098;28;20116;-86
2023/05/28 07:17:33;;;;;;;26.17;11.63;;;;;;;19.62;92.16;100484.91;5031029;28;20025;-84
2023/05/28 07:19:58;;;;;;;29.20;12.23;;;;;;;19.63;92.85;100489.34;5044225;28;20044;-82
2023/05/28 07:22:25;;;;;;;27.70;12.75;;;;;;;19.77;94.16;100489.34;5023617;28;20037;-80
2023/05/28 07:24:50;;;;;;;28.85;12.65;;;;;;;19.70;93.18;100487.53;5024322;28;20501;-83
2023/05/28 07:27:16;;;;;;;28.35;11.63;;;;;;;19.76;91.55;100486.78;5046741;28;20037;-85
2023/05/28 07:29:41;;;;;;;27.23;11.50;;;;;;;19.81;90.87;100477.03;5033087;28;20030;-80
2023/05/28 07:32:07;;;;;;;28.42;11.18;;;;;;;20.07;92.57;100476.53;5044939;28;20044;-91
2023/05/28 07:34:32;;;;;;;29.38;13.35;;;;;;;20.41;92.96;100474.06;5052316;28;20068;-88
2023/05/28 07:37:00;;;;;;;22.73;11.38;;;;;;;20.33;86.87;100468.72;5049766;28;20033;-88
2023/05/28 07:39:26;;;;;;;35.45;18.25;;;;;;;20.52;86.40;100479.03;5014348;28;20048;-88
2023/05/28 07:41:53;;;;;;;27.05;11.00;;;;;;;20.61;85.11;100472.41;5042013;28;20057;-83
2023/05/28 07:44:19;;;;;;;20.65;10.82;;;;;;;20.74;86.32;100477.16;5043306;28;20072;-77
2023/05/28 07:46:44;;;;;;;29.00;10.82;;;;;;;20.66;85.05;100477.31;5035050;28;20029;-79
2023/05/28 07:49:10;;;;;;;28.60;13.48;;;;;;;20.70;84.82;100475.03;5028916;28;20025;-78
2023/05/28 07:51:36;;;;;;;20.23;10.85;;;;;;;20.81;84.33;100478.09;5028232;28;20045;-75
2023/05/28 07:54:02;;;;;;;32.78;13.32;;;;;;;20.91;83.00;100485.97;5031265;28;20445;-77
2023/05/28 07:56:27;;;;;;;49.60;20.40;;;;;;;20.97;83.29;100479.72;5030239;28;20033;-79
2023/05/28 07:58:53;;;;;;;25.50;9.85;;;;;;;21.00;81.08;100482.06;5029111;28;20555;-77
2023/05/28 08:01:18;;;;;;;23.95;10.60;;;;;;;21.03;81.51;100487.16;5029264;28;20037;-77
2023/05/28 08:03:48;;;;;;;24.55;11.77;;;;;;;20.70;81.66;100483.22;5028676;28;20413;-79
2023/05/28 08:06:13;;;;;;;29.02;11.27;;;;;;;20.79;82.03;100488.38;5028767;28;20044;-77
2023/05/28 08:08:40;;;;;;;27.02;12.23;;;;;;;20.69;81.09;100465.97;5028772;28;20401;-76
2023/05/28 08:11:06;;;;;;;31.13;10.45;;;;;;;20.76;81.48;100482.44;5028590;28;20048;-77
2023/05/28 08:13:31;;;;;;;29.15;13.35;;;;;;;20.71;80.36;100482.16;5029335;28;21075;-78
2023/05/28 08:15:58;;;;;;;23.23;11.35;;;;;;;20.55;81.99;100484.09;5028489;28;20055;-80
2023/05/28 08:18:26;;;;;;;28.33;12.95;;;;;;;20.46;82.92;100479.78;5031647;28;20037;-86
2023/05/28 08:20:52;;;;;;;38.47;14.15;;;;;;;20.41;83.59;100481.41;5049232;28;20492;-85
2023/05/28 08:23:17;;;;;;;25.50;14.23;;;;;;;20.42;84.08;100478.50;5036776;28;20042;-89
2023/05/28 08:25:43;;;;;;;33.40;18.02;;;;;;;20.24;84.16;100475.31;5036268;28;20032;-86
2023/05/28 08:28:09;;;;;;;25.73;13.48;;;;;;;20.03;85.42;100481.53;5044058;28;20036;-90
2023/05/28 08:30:35;;;;;;;20.98;10.85;;;;;;;19.89;86.93;100474.19;5069368;28;20038;-88
2023/05/28 08:33:01;;;;;;;24.05;12.13;;;;;;;19.90;88.27;100458.66;5045257;28;20033;-88
2023/05/28 08:35:26;;;;;;;25.83;13.05;;;;;;;20.06;89.23;100475.69;5033839;28;20030;-88
2023/05/28 08:37:52;;;;;;;29.55;13.70;;;;;;;20.29;89.09;100470.13;5035060;28;20093;-86
2023/05/28 08:40:17;;;;;;;29.92;13.13;;;;;;;20.48;88.22;100463.22;5012009;28;20103;-80
2023/05/28 08:42:43;;;;;;;24.70;10.70;;;;;;;20.42;85.37;100453.91;5028854;28;20099;-82
2023/05/28 08:45:10;;;;;;;22.95;11.98;;;;;;;20.74;85.01;100479.03;5029021;28;20021;-83
2023/05/28 08:47:37;;;;;;;20.17;11.27;;;;;;;20.74;84.06;100479.03;5029575;28;20113;-86
2023/05/28 08:50:06;;;;;;;30.83;15.38;;;;;;;20.83;83.30;100486.09;5028562;28;20120;-78
2023/05/28 08:52:33;;;;;;;28.35;11.75;;;;;;;20.86;83.17;100475.59;5029532;28;20033;-85
2023/05/28 08:54:59;;;;;;;30.33;12.25;;;;;;;20.86;82.06;100472.03;5029725;28;20042;-84
2023/05/28 08:57:29;;;;;;;32.55;12.60;;;;;;;21.04;81.99;100458.72;5029746;28;20029;-82
2023/05/28 08:59:55;;;;;;;27.23;11.63;;;;;;;21.18;78.06;100477.00;5028112;28;20021;-82
2023/05/28 09:02:25;;;;;;;25.45;12.77;;;;;;;21.14;77.41;100470.22;5028356;28;20029;-82
2023/05/28 09:04:51;;;;;;;32.28;12.65;;;;;;;21.13;77.03;100482.19;5028416;28;20034;-81
2023/05/28 09:07:16;;;;;;;25.27;10.85;;;;;;;21.13;77.08;100460.31;5029068;28;20029;-84
2023/05/28 09:09:43;;;;;;;27.00;10.15;;;;;;;21.15;75.63;100467.31;5031918;28;20426;-87
2023/05/28 09:12:12;;;;;;;25.60;10.85;;;;;;;21.19;74.85;100469.66;5032000;28;20040;-86
2023/05/28 09:14:40;;;;;;;32.97;11.20;;;;;;;21.02;74.25;100471.78;5029791;28;20175;-86
2023/05/28 09:17:09;;;;;;;48.72;12.77;;;;;;;21.16;73.45;100474.44;5031455;28;20029;-82
2023/05/28 09:19:36;;;;;;;58.95;12.25;;;;;;;21.23;73.64;100462.72;5035413;28;20049;-83
2023/05/28 09:22:03;;;;;;;28.35;11.82;;;;;;;21.40;74.71;100475.09;5036812;28;20131;-88
2023/05/28 09:24:30;;;;;;;30.27;11.30;;;;;;;21.66;75.21;100459.69;5041355;28;20033;-85
2023/05/28 09:26:57;;;;;;;52.92;13.15;;;;;;;21.92;73.46;100471.91;5052084;28;20030;-90
2023/05/28 09:29:25;;;;;;;49.88;11.00;;;;;;;22.09;72.89;100465.03;5042382;28;20021;-90
2023/05/28 09:32:00;;;;;;;44.95;14.48;;;;;;;22.44;72.13;100482.25;5097845;23;20055;-90
2023/05/28 09:34:30;;;;;;;55.63;13.15;;;;;;;22.67;70.81;100474.56;5033312;28;20033;-85
2023/05/28 09:37:03;;;;;;;112.13;14.35;;;;;;;22.80;69.29;100474.59;5050520;28;20409;-92
2023/05/28 09:39:29;;;;;;;43.10;11.98;;;;;;;23.04;68.57;100481.38;5032848;28;20052;-82
2023/05/28 09:42:12;;;;;;;38.95;11.02;;;;;;;23.09;67.18;100468.72;5032330;28;20477;-84
2023/05/28 09:44:40;;;;;;;53.53;10.43;;;;;;;23.21;64.92;100467.03;5032924;28;20135;-80
2023/05/28 09:47:16;;;;;;;41.60;10.20;;;;;;;23.03;62.96;100469.56;5040677;28;20049;-81
2023/05/28 09:49:46;;;;;;;78.80;14.07;;;;;;;23.07;64.72;100472.72;5037273;28;20022;-80
2023/05/28 09:52:19;;;;;;;41.05;9.23;;;;;;;23.27;64.48;100466.19;5031009;28;20025;-81
2023/05/28 09:54:59;;;;;;;42.47;10.35;;;;;;;23.40;64.68;100462.63;5032117;28;20036;-82
2023/05/28 09:57:30;;;;;;;95.50;15.27;;;;;;;23.72;64.68;100453.53;5032094;28;20037;-82
2023/05/28 09:59:59;;;;;;;31.00;10.68;;;;;;;23.75;61.44;100464.09;5030019;28;20025;-81
2023/05/28 10:02:40;;;;;;;24.92;9.63;;;;;;;23.56;60.30;100451.22;5031773;28;20421;-79
2023/05/28 10:05:08;;;;;;;32.30;10.65;;;;;;;23.39;61.14;100466.47;5049172;28;20029;-85
2023/05/28 10:07:34;;;;;;;49.63;12.13;;;;;;;23.24;61.68;100450.16;5035017;28;20036;-87
2023/05/28 10:10:01;;;;;;;67.88;15.48;;;;;;;23.24;61.96;100480.34;5046179;28;20504;-85
2023/05/28 10:12:29;;;;;;;67.38;12.13;;;;;;;23.25;62.05;100462.81;5045302;28;20149;-85
2023/05/28 10:14:55;;;;;;;30.65;11.00;;;;;;;23.14;60.71;100446.16;5035560;28;20022;-85
2023/05/28 10:17:21;;;;;;;54.47;12.02;;;;;;;23.06;60.69;100451.81;5039170;28;20478;-89
2023/05/28 10:19:47;;;;;;;65.65;13.05;;;;;;;23.16;61.32;100457.75;5041502;28;20563;-81
2023/05/28 10:22:15;;;;;;;38.97;10.43;;;;;;;23.12;61.61;100462.81;5036084;28;20386;-80
2023/05/28 10:24:41;;;;;;;65.22;13.18;;;;;;;22.95;61.57;100477.16;5039760;28;20025;-80
2023/05/28 10:27:07;;;;;;;45.70;11.45;;;;;;;23.02;61.49;100478.00;5039386;28;20033;-79
2023/05/28 10:29:50;;;;;;;33.70;9.63;;;;;;;23.06;60.63;100477.38;5049615;28;20018;-81
2023/05/28 10:32:16;;;;;;;44.22;11.45;;;;;;;23.16;61.15;100441.28;5031776;28;20057;-83
2023/05/28 10:34:43;;;;;;;42.70;10.50;;;;;;;23.40;60.47;100465.38;5031351;28;20033;-80
2023/05/28 10:37:10;;;;;;;77.35;14.80;;;;;;;23.57;59.93;100463.06;5031402;28;20029;-80
2023/05/28 10:39:48;;;;;;;43.28;12.27;;;;;;;23.62;58.57;100436.63;5031431;28;20029;-80
2023/05/28 10:42:18;;;;;;;38.95;9.85;;;;;;;23.81;57.70;100468.72;5030492;28;20030;-82
2023/05/28 10:45:12;;;;;;;35.72;10.68;;;;;;;23.92;57.43;100460.84;5030761;28;20451;-81
2023/05/28 10:47:50;;;;;;;51.72;12.27;;;;;;;23.93;57.85;100451.56;5030736;28;20106;-81
2023/05/28 10:50:17;;;;;;;86.45;15.27;;;;;;;24.13;58.18;100449.63;5032919;28;20029;-81
2023/05/28 10:53:06;;;;;;;40.97;10.20;;;;;;;23.87;58.22;100449.69;5031251;28;20159;-81
2023/05/28 10:55:53;;;;;;;34.45;11.63;;;;;;;23.36;59.42;100442.16;5030373;28;20480;-82
2023/05/28 10:58:38;;;;;;;63.20;13.55;;;;;;;23.23;60.45;100453.13;5029540;28;20390;-80
2023/05/28 11:01:19;;;;;;;29.50;10.60;;;;;;;22.93;61.55;100446.34;5029492;28;20528;-81
2023/05/28 11:03:52;;;;;;;39.88;10.40;;;;;;;23.08;61.43;100449.75;5030376;28;20028;-81
2023/05/28 11:06:18;;;;;;;22.38;9.43;;;;;;;22.78;62.04;100444.63;5033393;28;20043;-82
2023/05/28 11:08:45;;;;;;;58.20;12.90;;;;;;;22.95;61.75;100455.19;5034911;28;20052;-80